Flight Track Log - Related Links

Times and Time Zones

All times are in EDT time to prevent confusion due to time zone crossing. See the SKW5511 flight status page for this flight to view local times or setup timezone preferences in your user account.

Time Position Orientation Groundspeed Altitude Reporting Facility
EDT Latitude Longitude Course Direction KTS MPH feet Rate Location/Type
Sat 02:15:25 PM 41.2408 -95.8344 142° Southeast 213 245 3,800  Level Minneapolis Center
Sat 02:16:03 PM 41.2175 -95.8000 132° Southeast 221 254 4,900 2,100 Climbing Minneapolis Center
Sat 02:17:00 PM 41.3602 -95.5232 37° Northeast  Level FlightAware Approximate
Sat 02:17:05 PM 41.2467 -95.7125 66° East 262 302 7,300  Level Minneapolis Center
Sat 02:18:00 PM 41.4453 -95.4381 37° Northeast  Level FlightAware Approximate
Sat 02:18:07 PM 41.3264 -95.6336 37° Northeast 288 331 10,300  Level Minneapolis Center
Sat 02:19:00 PM 41.5303 -95.3531 37° Northeast  Level FlightAware Approximate
Sat 02:19:09 PM 41.3967 -95.5617 38° Northeast 305 351 12,700  Level Minneapolis Center
Sat 02:20:22 PM 41.4847 -95.4683 38° Northeast 330 380 16,000 2,400 Climbing Minneapolis Center
Sat 02:21:24 PM 41.5583 -95.3956 36° Northeast 330 380 18,100 1,790 Climbing Minneapolis Center
Sat 02:22:26 PM 41.6328 -95.3167 38° Northeast 340 391 19,700 1,659 Climbing Minneapolis Center
Sat 02:23:27 PM 41.6633 -95.1767 74° East 385 443 21,500 1,659 Climbing Minneapolis Center
Sat 02:24:29 PM 41.6892 -95.0375 76° East 387 445 23,100 1,452 Climbing Minneapolis Center
Sat 02:25:31 PM 41.7219 -94.8631 76° East 400 460 24,500 1,366 Climbing Minneapolis Center
Sat 02:26:32 PM 41.7492 -94.7150 76° East 408 470 25,900 1,220 Climbing Minneapolis Center
Sat 02:27:34 PM 41.7764 -94.5650 76° East 413 475 27,000 919 Climbing Minneapolis Center
Sat 02:28:36 PM 41.8042 -94.4117 76° East 422 486 27,800 780 Climbing Minneapolis Center
Sat 02:29:37 PM 41.8319 -94.2553 77° East 429 494 28,600 829 Climbing Minneapolis Center
Sat 02:30:39 PM 41.8600 -94.0958 77° East 438 504 29,500 780 Climbing Minneapolis Center
Sat 02:31:40 PM 41.8881 -93.9364 77° East 439 505 30,200 634 Climbing Minneapolis Center
Sat 02:32:42 PM 41.9194 -93.7603 76° East 448 516 30,800 585 Climbing Minneapolis Center
Sat 02:33:43 PM 41.9486 -93.5908 77° East 455 524 31,400 488 Climbing Minneapolis Center
Sat 02:34:45 PM 41.9778 -93.4244 77° East 461 531 31,800 387 Climbing Minneapolis Center
Sat 02:35:47 PM 42.0061 -93.2539 77° East 469 540 32,200 537 Climbing Minneapolis Center
Sat 02:36:48 PM 42.0347 -93.0814 77° East 474 545 32,900 390 Climbing Minneapolis Center
Sat 02:37:50 PM 42.0689 -92.8731 77° East 477 549 33,000 44 Climbing Minneapolis Center
Sat 02:39:04 PM 42.1019 -92.6650 78° East 479 551 33,000  Level Minneapolis Center
Sat 02:39:34 PM 42.1147 -92.5928 77° East 480 552 33,000  Level Chicago Center
Sat 02:40:05 PM 42.1303 -92.4906 78° East 480 552 33,000  Level Minneapolis Center
Sat 02:41:07 PM 42.1586 -92.3178 77° East 479 551 33,000  Level Minneapolis Center
Sat 02:42:08 PM 42.1861 -92.1450 78° East 477 549 33,000  Level Minneapolis Center
Sat 02:42:40 PM 42.2025 -92.0408 78° East 476 548 33,000  Level Chicago Center
Sat 02:43:42 PM 42.2292 -91.8700 78° East 472 543 33,000  Level Chicago Center
Sat 02:44:44 PM 42.2547 -91.7014 78° East 469 540 33,000 -290 Level Chicago Center
Sat 02:45:46 PM 42.2864 -91.4953 78° East 474 545 32,400 -677 Descending Chicago Center
Sat 02:46:48 PM 42.3117 -91.3231 79° East 475 547 31,600 -878 Descending Chicago Center
Sat 02:47:49 PM 42.3386 -91.1411 79° East 497 572 30,600 -976 Descending Chicago Center
Sat 02:48:51 PM 42.3669 -90.9542 78° East 511 588 29,600 -774 Descending Chicago Center
Sat 02:49:53 PM 42.3922 -90.7739 79° East 495 570 29,000 -484 Descending Chicago Center
Sat 02:50:55 PM 42.4167 -90.5608 81° East 483 556 28,600 -726 Descending Chicago Center
Sat 02:51:57 PM 42.4347 -90.3803 82° East 489 563 27,500 -1,122 Descending Chicago Center
Sat 02:52:58 PM 42.4533 -90.1986 82° East 492 566 26,300 -1,707 Descending Chicago Center
Sat 02:54:00 PM 42.4706 -90.0206 82° East 484 557 24,000 -2,226 Descending Chicago Center
Sat 02:55:02 PM 42.4892 -89.8294 82° East 458 527 21,700 -2,081 Descending Chicago Center
Sat 02:56:04 PM 42.5061 -89.6589 82° East 454 522 19,700 -1,902 Descending Chicago Center
Sat 02:57:05 PM 42.5222 -89.4919 82° East 449 517 17,800 -1,902 Descending Chicago Center
Sat 02:58:07 PM 42.5367 -89.3275 83° East 440 506 15,800 -1,790 Descending Chicago Center
Sat 02:59:09 PM 42.5517 -89.1703 83° East 424 488 14,100 -1,016 Descending Chicago Center
Sat 03:00:11 PM 42.5239 -88.9936 102° East 418 481 13,700 -780 Descending Chicago Center
Sat 03:01:12 PM 42.4797 -88.8500 113° Southeast 415 478 12,500 -1,122 Descending Chicago Center
Sat 03:02:14 PM 42.4375 -88.7067 112° Southeast 410 472 11,400 -968 Descending Chicago Center
Sat 03:03:16 PM 42.3939 -88.5664 113° Southeast 406 467 10,500 -683 Descending Chicago Center
Sat 03:04:17 PM 42.3531 -88.4289 112° Southeast 398 458 10,000 -244 Descending Chicago Center
Sat 03:05:19 PM 42.2939 -88.3106 124° Southeast 386 444 10,000  Level Chicago Center
Sat 03:06:20 PM 42.2283 -88.2014 129° Southeast 377 434 10,000 -927 Level Chicago Center
Sat 03:07:22 PM 42.1553 -88.1017 135° Southeast 312 359 8,100 -1,452 Descending Chicago Center
Sat 03:08:24 PM 42.0956 -88.0292 138° Southeast 293 337 7,000 -635 Descending Chicago Center
Sat 03:09:06 PM 42.1000 -87.9500 86° East 270 311 7,000 -176 Level Chicago TRACON
Sat 03:10:06 PM 42.1000 -87.8500 90° East 268 308 6,700 -1,048 Descending Chicago TRACON
Sat 03:11:12 PM 42.1000 -87.7500 90° East 239 275 4,800 -1,429 Descending Chicago TRACON
Sat 03:12:12 PM 42.0833 -87.6667 105° East 217 250 3,700 -900 Descending Chicago TRACON
Sat 03:13:12 PM 42.0333 -87.6500 166° South 188 216 3,000 -368 Descending Chicago TRACON
Sat 03:14:06 PM 42.0167 -87.7000 246° West 166 191 3,000  Level Chicago TRACON

Login

Don't have an account? Register now (free) for customized features, flight alerts, and more!